DENVER INTL

KDEN (DEN)
Denver, Colorado
Towered

Vatsim Metar:
KDEN 131953Z 26011G14KT 10SM FEW065 SCT120 BKN200 08/M08 A3008 RMK AO2 SLP174 T00831083

SIDs

STARS

Alternate Minimums

Hot Spots